Terminal Aerodrome Forecast
Issued by NWS New Orleans/Baton Rouge, LA

Home | Current Version | Previous Version | Text Only | Print | Product List | Glossary On
Versions: 1 2 3 4 5 6 7 8 9 10 11 12
000
FTUS44 KLIX 290500
TAFBTR
TAF
KBTR 290532Z 2906/3006 11005KT P6SM SKC
     FM291400 17007KT P6SM BKN030
     FM292100 19009KT P6SM SCT030
     FM292200 19009KT P6SM SCT250
     FM300300 18008KT P6SM SCT030=

USA.gov is the U.S. government's official web portal to all federal, state and local government web resources and services.